createdAt,value
2023-03-04T00:00:31.891Z,6.81
2023-03-04T00:02:58.389Z,6.81
2023-03-04T00:05:24.858Z,6.77
2023-03-04T00:07:51.421Z,6.78
2023-03-04T00:10:17.986Z,6.77
2023-03-04T00:12:44.459Z,6.65
2023-03-04T00:15:11.028Z,6.70
2023-03-04T00:17:37.479Z,6.63
2023-03-04T00:20:04.219Z,6.73
2023-03-04T00:22:30.666Z,6.74
2023-03-04T00:24:57.171Z,6.75
2023-03-04T00:27:23.586Z,6.72
2023-03-04T00:29:50.133Z,6.72
2023-03-04T00:32:18.270Z,6.72
2023-03-04T00:34:44.805Z,6.72
2023-03-04T00:37:11.279Z,6.71
2023-03-04T00:39:37.750Z,6.70
2023-03-04T00:42:04.397Z,6.63
2023-03-04T00:44:30.810Z,6.67
2023-03-04T00:46:57.262Z,6.64
2023-03-04T00:49:23.773Z,6.67
2023-03-04T00:51:50.240Z,6.66
2023-03-04T00:54:16.771Z,6.70
2023-03-04T00:56:43.212Z,6.66
2023-03-04T00:59:09.673Z,6.70
2023-03-04T01:01:36.130Z,6.70
2023-03-04T01:04:02.583Z,6.69
2023-03-04T01:06:29.062Z,6.61
2023-03-04T01:08:55.507Z,6.67
2023-03-04T01:11:22.092Z,6.67
2023-03-04T01:13:48.611Z,6.72
2023-03-04T01:16:15.493Z,6.75
2023-03-04T01:18:42.024Z,6.75
2023-03-04T01:21:08.555Z,6.71
2023-03-04T01:23:35.042Z,6.75
2023-03-04T01:26:01.592Z,6.77
2023-03-04T01:28:28.091Z,6.79
2023-03-04T01:30:54.674Z,6.79
2023-03-04T01:33:21.245Z,6.83
2023-03-04T01:35:47.738Z,6.80
2023-03-04T01:38:14.363Z,6.78
2023-03-04T01:40:40.904Z,6.76
2023-03-04T01:43:07.471Z,6.78
2023-03-04T01:45:35.705Z,6.78
2023-03-04T01:48:02.308Z,6.79
2023-03-04T01:50:33.047Z,6.72
2023-03-04T01:53:00.191Z,6.72
2023-03-04T01:55:26.875Z,6.78
2023-03-04T01:57:54.204Z,6.80
2023-03-04T02:00:33.022Z,6.79
2023-03-04T02:03:04.285Z,6.82
2023-03-04T02:05:31.262Z,6.76
2023-03-04T02:07:59.751Z,6.76
2023-03-04T02:10:26.385Z,6.77
2023-03-04T02:12:53.641Z,6.78
2023-03-04T02:15:20.646Z,6.76
2023-03-04T02:17:47.246Z,6.76
2023-03-04T02:20:30.806Z,6.77
2023-03-04T02:23:15.056Z,6.78
2023-03-04T02:25:55.150Z,6.74
2023-03-04T02:28:21.939Z,6.77
2023-03-04T02:30:48.426Z,6.77
2023-03-04T02:33:17.591Z,6.75
2023-03-04T02:35:44.666Z,6.77
2023-03-04T02:38:12.535Z,6.74
2023-03-04T02:40:41.501Z,6.73
2023-03-04T02:43:11.425Z,6.74
2023-03-04T02:45:49.315Z,6.71
2023-03-04T02:48:21.214Z,6.73
2023-03-04T02:50:51.020Z,6.72
2023-03-04T02:53:17.794Z,6.73
2023-03-04T02:55:44.763Z,6.74
2023-03-04T02:58:12.200Z,6.72
2023-03-04T03:00:39.853Z,6.72
2023-03-04T03:03:07.026Z,6.70
2023-03-04T03:05:34.619Z,6.70
2023-03-04T03:08:01.160Z,6.69
2023-03-04T03:10:27.972Z,6.69
2023-03-04T03:12:54.525Z,6.70
2023-03-04T03:15:21.059Z,6.69
2023-03-04T03:17:47.649Z,6.71
2023-03-04T03:20:15.184Z,6.70
2023-03-04T03:22:42.202Z,6.70
2023-03-04T03:25:11.264Z,6.62
2023-03-04T03:27:38.013Z,6.64
2023-03-04T03:30:05.705Z,6.66
2023-03-04T03:32:32.383Z,6.66
2023-03-04T03:34:58.908Z,6.64
2023-03-04T03:37:25.491Z,6.61
2023-03-04T03:39:51.973Z,6.65
2023-03-04T03:42:18.510Z,6.64
2023-03-04T03:44:44.991Z,6.63
2023-03-04T03:47:11.449Z,6.60
2023-03-04T03:49:37.899Z,6.62
2023-03-04T03:52:04.958Z,6.66
2023-03-04T03:54:31.426Z,6.61
2023-03-04T03:56:57.979Z,6.63
2023-03-04T03:59:24.429Z,6.62
2023-03-04T04:01:51.159Z,6.62
2023-03-04T04:04:17.699Z,6.63
2023-03-04T04:06:44.247Z,6.62
2023-03-04T04:09:10.765Z,6.63
2023-03-04T04:11:37.238Z,6.65
2023-03-04T04:14:03.800Z,6.64
2023-03-04T04:16:30.880Z,6.62
2023-03-04T04:18:57.395Z,6.66
2023-03-04T04:21:23.867Z,6.64
2023-03-04T04:23:50.420Z,6.60
2023-03-04T04:26:16.848Z,6.57
2023-03-04T04:28:43.327Z,6.59
2023-03-04T04:31:09.966Z,6.59
2023-03-04T04:33:36.747Z,6.61
2023-03-04T04:36:05.018Z,6.59
2023-03-04T04:38:31.863Z,6.60
2023-03-04T04:40:59.245Z,6.62
2023-03-04T04:43:25.823Z,6.61
2023-03-04T04:45:52.415Z,6.58
2023-03-04T04:48:18.923Z,6.54
2023-03-04T04:50:45.474Z,6.50
2023-03-04T04:53:14.288Z,6.55
2023-03-04T04:55:40.720Z,6.52
2023-03-04T04:58:07.842Z,6.55
2023-03-04T05:00:34.402Z,6.55
2023-03-04T05:03:00.913Z,6.58
2023-03-04T05:05:27.375Z,6.57
2023-03-04T05:07:53.850Z,6.53
2023-03-04T05:10:20.397Z,6.49
2023-03-04T05:12:47.013Z,6.54
2023-03-04T05:15:13.515Z,6.56
2023-03-04T05:17:40.031Z,6.55
2023-03-04T05:20:07.173Z,6.56
2023-03-04T05:22:33.674Z,6.55
2023-03-04T05:25:00.385Z,6.52
2023-03-04T05:27:26.909Z,6.50
2023-03-04T05:29:55.510Z,6.52
2023-03-04T05:32:21.995Z,6.54
2023-03-04T05:34:48.523Z,6.52
2023-03-04T05:37:14.974Z,6.53
2023-03-04T05:39:41.462Z,6.54
2023-03-04T05:42:08.077Z,6.53
2023-03-04T05:44:34.542Z,6.52
2023-03-04T05:47:01.039Z,6.56
2023-03-04T05:49:27.508Z,6.55
2023-03-04T05:51:53.956Z,6.51
2023-03-04T05:54:21.590Z,6.49
2023-03-04T05:56:48.088Z,6.49
2023-03-04T05:59:20.323Z,6.49
2023-03-04T06:01:47.463Z,6.50
2023-03-04T06:04:13.948Z,6.49
2023-03-04T06:06:40.430Z,6.48
2023-03-04T06:09:07.042Z,6.46
2023-03-04T06:11:35.956Z,6.47
2023-03-04T06:14:03.189Z,6.46
2023-03-04T06:16:29.754Z,6.45
2023-03-04T06:18:56.456Z,6.42
2023-03-04T06:21:23.022Z,6.47
2023-03-04T06:23:49.538Z,6.48
2023-03-04T06:26:16.241Z,6.48
2023-03-04T06:28:43.489Z,6.51
2023-03-04T06:31:10.146Z,6.49
2023-03-04T06:33:36.887Z,6.46
2023-03-04T06:36:03.674Z,6.49
2023-03-04T06:38:30.118Z,6.51
2023-03-04T06:40:57.521Z,6.50
2023-03-04T06:43:24.266Z,6.43
2023-03-04T06:45:50.842Z,6.50
2023-03-04T06:48:17.312Z,6.48
2023-03-04T06:50:43.797Z,6.53
2023-03-04T06:53:10.267Z,6.54
2023-03-04T06:55:36.752Z,6.55
2023-03-04T06:58:03.276Z,6.57
2023-03-04T07:00:29.862Z,6.55
2023-03-04T07:02:59.012Z,6.54
2023-03-04T07:05:25.740Z,6.54
2023-03-04T07:07:52.245Z,6.57
2023-03-04T07:10:19.428Z,6.56
2023-03-04T07:12:46.225Z,6.56
2023-03-04T07:15:13.200Z,6.53
2023-03-04T07:17:39.701Z,6.55
2023-03-04T07:20:06.879Z,6.58
2023-03-04T07:22:33.427Z,6.62
2023-03-04T07:24:59.877Z,6.63
2023-03-04T07:27:26.383Z,6.60
2023-03-04T07:29:52.940Z,6.57
2023-03-04T07:32:19.745Z,6.54
2023-03-04T07:34:46.227Z,6.55
2023-03-04T07:37:12.778Z,6.56
2023-03-04T07:39:39.276Z,6.59
2023-03-04T07:42:05.769Z,6.64
2023-03-04T07:44:32.250Z,6.67
2023-03-04T07:46:58.710Z,6.73
2023-03-04T07:49:25.207Z,6.79
2023-03-04T07:51:51.645Z,6.87
2023-03-04T07:54:20.122Z,6.93
2023-03-04T07:56:46.625Z,6.92
2023-03-04T07:59:13.201Z,6.96
2023-03-04T08:01:40.054Z,7.04
2023-03-04T08:04:07.921Z,6.98
2023-03-04T08:06:35.026Z,6.93
2023-03-04T08:09:05.686Z,7.04
2023-03-04T08:11:33.326Z,7.18
2023-03-04T08:13:59.977Z,7.12
2023-03-04T08:16:27.190Z,7.13
2023-03-04T08:18:57.093Z,7.21
2023-03-04T08:21:26.224Z,7.19
2023-03-04T08:23:53.277Z,7.28
2023-03-04T08:26:30.170Z,7.36
2023-03-04T08:28:57.802Z,7.39
2023-03-04T08:31:25.413Z,7.41
2023-03-04T08:33:52.885Z,7.37
2023-03-04T08:36:20.026Z,7.51
2023-03-04T08:38:46.729Z,7.63
2023-03-04T08:41:14.101Z,7.69
2023-03-04T08:43:40.799Z,7.79
2023-03-04T08:46:07.727Z,7.80
2023-03-04T08:48:36.961Z,7.81
2023-03-04T08:51:14.287Z,7.93
2023-03-04T08:53:41.082Z,8.02
2023-03-04T08:56:08.925Z,7.91
2023-03-04T08:58:36.163Z,7.90
2023-03-04T09:01:03.855Z,7.88
2023-03-04T09:03:30.549Z,7.78
2023-03-04T09:05:57.095Z,7.84
2023-03-04T09:08:23.843Z,7.81
2023-03-04T09:10:53.681Z,7.83
2023-03-04T09:13:20.772Z,7.93
2023-03-04T09:15:49.443Z,7.99
2023-03-04T09:18:17.724Z,7.95
2023-03-04T09:20:45.156Z,8.01
2023-03-04T09:23:12.170Z,7.97
2023-03-04T09:25:39.455Z,8.03
2023-03-04T09:28:06.892Z,8.07
2023-03-04T09:30:34.613Z,7.95
2023-03-04T09:33:01.574Z,8.05
2023-03-04T09:35:29.982Z,8.06
2023-03-04T09:37:58.695Z,8.13
2023-03-04T09:40:32.579Z,8.09
2023-03-04T09:43:04.100Z,8.23
2023-03-04T09:45:53.304Z,8.22
2023-03-04T09:48:27.440Z,8.23
2023-03-04T09:51:03.514Z,8.23
2023-03-04T09:53:40.690Z,8.23
2023-03-04T09:56:07.393Z,8.19
2023-03-04T09:58:54.867Z,8.15
2023-03-04T10:01:21.294Z,8.14
2023-03-04T10:04:07.931Z,8.22
2023-03-04T10:06:34.785Z,8.09
2023-03-04T10:09:21.260Z,8.28
2023-03-04T10:12:01.612Z,8.35
2023-03-04T10:14:53.430Z,8.38
2023-03-04T10:17:30.081Z,8.46
2023-03-04T10:20:03.690Z,8.48
2023-03-04T10:22:56.510Z,8.39
2023-03-04T10:25:27.620Z,8.53
2023-03-04T10:28:03.109Z,8.45
2023-03-04T10:30:50.656Z,8.50
2023-03-04T10:33:30.564Z,8.46
2023-03-04T10:36:03.118Z,8.41
2023-03-04T10:38:35.872Z,8.40
2023-03-04T10:41:13.846Z,8.39
2023-03-04T10:43:40.491Z,8.38
2023-03-04T10:46:10.827Z,8.31
2023-03-04T10:48:40.660Z,8.32
2023-03-04T10:51:20.098Z,8.31
2023-03-04T10:53:48.692Z,8.26
2023-03-04T10:56:31.571Z,8.17
2023-03-04T10:59:33.356Z,8.21
2023-03-04T11:02:20.023Z,8.21
2023-03-04T11:05:05.052Z,8.23
2023-03-04T11:07:43.542Z,8.26
2023-03-04T11:10:23.425Z,8.37
2023-03-04T11:12:58.869Z,8.44
2023-03-04T11:15:27.640Z,8.49
2023-03-04T11:17:59.515Z,8.49
2023-03-04T11:20:36.271Z,8.53
2023-03-04T11:23:11.264Z,8.59
2023-03-04T11:25:43.790Z,8.59
2023-03-04T11:28:19.267Z,8.57
2023-03-04T11:30:48.621Z,8.57
2023-03-04T11:33:27.966Z,8.68
2023-03-04T11:35:59.290Z,8.85
2023-03-04T11:38:44.421Z,8.81
2023-03-04T11:41:19.281Z,8.81
2023-03-04T11:43:47.148Z,8.83
2023-03-04T11:46:33.081Z,8.89
2023-03-04T11:49:21.452Z,8.67
2023-03-04T11:52:04.527Z,8.71
2023-03-04T11:54:46.227Z,8.72
2023-03-04T11:57:43.709Z,8.79
2023-03-04T12:00:16.492Z,8.86
2023-03-04T12:02:55.198Z,8.93
2023-03-04T12:05:58.575Z,9.01
2023-03-04T12:08:59.449Z,8.96
2023-03-04T12:11:56.311Z,8.88
2023-03-04T12:14:30.739Z,8.83
2023-03-04T12:17:30.482Z,8.81
2023-03-04T12:19:59.713Z,8.79
2023-03-04T12:22:41.296Z,8.72
2023-03-04T12:25:26.631Z,8.56
2023-03-04T12:28:08.251Z,8.62
2023-03-04T12:30:40.911Z,8.53
2023-03-04T12:33:07.413Z,8.55
2023-03-04T12:35:41.619Z,8.54
2023-03-04T12:38:31.559Z,8.21
2023-03-04T12:41:17.282Z,8.41
2023-03-04T12:44:08.350Z,8.53
2023-03-04T12:46:50.747Z,8.61
2023-03-04T12:49:37.644Z,8.54
2023-03-04T12:52:07.050Z,8.58
2023-03-04T12:54:43.499Z,8.57
2023-03-04T12:57:17.869Z,8.68
2023-03-04T12:59:52.016Z,8.80
2023-03-04T13:02:55.248Z,8.83
2023-03-04T13:05:33.763Z,8.90
2023-03-04T13:08:31.105Z,8.94
2023-03-04T13:11:33.180Z,8.91
2023-03-04T13:14:09.464Z,8.83
2023-03-04T13:16:44.104Z,8.74
2023-03-04T13:19:47.599Z,8.69
2023-03-04T13:22:32.352Z,8.72
2023-03-04T13:25:02.516Z,8.61
2023-03-04T13:27:50.777Z,8.73
2023-03-04T13:30:32.529Z,8.62
2023-03-04T13:33:21.537Z,8.75
2023-03-04T13:36:01.806Z,8.79
2023-03-04T13:38:28.470Z,8.78
2023-03-04T13:41:15.318Z,8.90
2023-03-04T13:43:47.488Z,9.09
2023-03-04T13:46:20.079Z,9.26
2023-03-04T13:48:49.395Z,9.39
2023-03-04T13:51:44.170Z,9.42
2023-03-04T13:54:18.695Z,9.40
2023-03-04T13:57:00.485Z,9.23
2023-03-04T13:59:32.148Z,9.11
2023-03-04T14:02:02.935Z,9.06
2023-03-04T14:04:34.202Z,9.07
2023-03-04T14:07:03.772Z,9.09
2023-03-04T14:09:33.445Z,9.05
2023-03-04T14:12:04.461Z,9.03
2023-03-04T14:14:41.625Z,9.10
2023-03-04T14:17:19.279Z,9.11
2023-03-04T14:19:47.432Z,9.20
2023-03-04T14:22:28.715Z,9.27
2023-03-04T14:24:58.885Z,9.32
2023-03-04T14:27:25.633Z,9.35
2023-03-04T14:29:57.412Z,9.40
2023-03-04T14:32:25.062Z,9.37
2023-03-04T14:34:57.621Z,9.28
2023-03-04T14:37:43.433Z,9.30
2023-03-04T14:40:23.792Z,9.31
2023-03-04T14:42:56.490Z,9.37
2023-03-04T14:45:24.574Z,9.41
2023-03-04T14:47:54.510Z,9.36
2023-03-04T14:50:21.000Z,9.35
2023-03-04T14:52:53.051Z,9.36
2023-03-04T14:55:26.323Z,9.30
2023-03-04T14:58:27.076Z,9.31
2023-03-04T15:01:35.897Z,9.28
2023-03-04T15:04:14.051Z,9.20
2023-03-04T15:06:52.208Z,9.19
2023-03-04T15:09:25.327Z,9.19
2023-03-04T15:11:57.730Z,9.20
2023-03-04T15:14:43.879Z,9.21
2023-03-04T15:17:37.358Z,9.21
2023-03-04T15:20:09.648Z,9.23
2023-03-04T15:22:45.081Z,9.20
2023-03-04T15:25:20.383Z,9.26
2023-03-04T15:27:48.701Z,9.33
2023-03-04T15:30:18.655Z,9.33
2023-03-04T15:32:45.178Z,9.38
2023-03-04T15:35:13.138Z,9.41
2023-03-04T15:37:40.603Z,9.44
2023-03-04T15:40:18.896Z,9.52
2023-03-04T15:42:45.374Z,9.54
2023-03-04T15:45:23.425Z,9.56
2023-03-04T15:47:50.247Z,9.58
2023-03-04T15:50:18.560Z,9.59
2023-03-04T15:52:45.758Z,9.62
2023-03-04T15:55:21.030Z,9.52
2023-03-04T15:57:50.476Z,9.54
2023-03-04T16:00:17.449Z,9.52
2023-03-04T16:02:43.940Z,9.50
2023-03-04T16:05:10.905Z,9.44
2023-03-04T16:07:40.543Z,9.41
2023-03-04T16:10:15.520Z,9.45
2023-03-04T16:12:43.182Z,9.39
2023-03-04T16:15:20.160Z,9.31
2023-03-04T16:17:47.308Z,9.33
2023-03-04T16:20:16.543Z,9.33
2023-03-04T16:22:45.755Z,9.26
2023-03-04T16:25:13.868Z,9.24
2023-03-04T16:27:41.455Z,9.17
2023-03-04T16:30:19.947Z,9.13
2023-03-04T16:32:46.510Z,9.12
2023-03-04T16:35:15.188Z,9.12
2023-03-04T16:37:43.073Z,9.01
2023-03-04T16:40:13.447Z,8.96
2023-03-04T16:42:40.262Z,8.96
2023-03-04T16:45:14.906Z,8.87
2023-03-04T16:47:41.427Z,8.90
2023-03-04T16:50:14.522Z,8.85
2023-03-04T16:52:45.528Z,8.82
2023-03-04T16:55:18.833Z,8.83
2023-03-04T16:57:45.442Z,8.82
2023-03-04T17:00:13.516Z,8.81
2023-03-04T17:02:40.551Z,8.79
2023-03-04T17:05:09.863Z,8.73
2023-03-04T17:07:36.801Z,8.69
2023-03-04T17:10:03.388Z,8.62
2023-03-04T17:12:30.455Z,8.63
2023-03-04T17:14:57.018Z,8.64
2023-03-04T17:17:23.490Z,8.64
2023-03-04T17:19:50.044Z,8.64
2023-03-04T17:22:16.564Z,8.64
2023-03-04T17:24:43.000Z,8.59
2023-03-04T17:27:09.469Z,8.58
2023-03-04T17:29:35.969Z,8.57
2023-03-04T17:32:02.476Z,8.58
2023-03-04T17:34:29.016Z,8.55
2023-03-04T17:36:55.529Z,8.53
2023-03-04T17:39:22.031Z,8.53
2023-03-04T17:41:52.505Z,8.50
2023-03-04T17:44:19.327Z,8.51
2023-03-04T17:46:49.523Z,8.49
2023-03-04T17:49:16.656Z,8.45
2023-03-04T17:51:43.838Z,8.45
2023-03-04T17:54:11.229Z,8.45
2023-03-04T17:56:40.489Z,8.36
2023-03-04T17:59:09.149Z,8.35
2023-03-04T18:01:35.918Z,8.33
2023-03-04T18:04:02.771Z,8.25
2023-03-04T18:06:29.347Z,8.26
2023-03-04T18:08:55.844Z,8.30
2023-03-04T18:11:24.656Z,8.30
2023-03-04T18:13:51.602Z,8.26
2023-03-04T18:16:23.404Z,8.27
2023-03-04T18:18:51.001Z,8.24
2023-03-04T18:21:18.338Z,8.20
2023-03-04T18:23:45.181Z,8.16
2023-03-04T18:26:12.477Z,8.21
2023-03-04T18:28:38.970Z,8.23
2023-03-04T18:31:05.463Z,8.22
2023-03-04T18:33:32.493Z,8.19
2023-03-04T18:36:01.190Z,8.16
2023-03-04T18:38:28.667Z,8.11
2023-03-04T18:40:59.858Z,8.09
2023-03-04T18:43:26.737Z,8.07
2023-03-04T18:46:07.111Z,8.02
2023-03-04T18:48:45.440Z,8.06
2023-03-04T18:51:12.002Z,8.03
2023-03-04T18:53:39.277Z,8.01
2023-03-04T18:56:16.882Z,8.01
2023-03-04T18:58:45.070Z,8.02
2023-03-04T19:01:13.135Z,7.95
2023-03-04T19:03:41.129Z,7.99
2023-03-04T19:06:07.822Z,7.93
2023-03-04T19:08:34.655Z,7.92
2023-03-04T19:11:01.371Z,7.93
2023-03-04T19:13:30.531Z,7.91
2023-03-04T19:15:57.335Z,7.90
2023-03-04T19:18:23.864Z,7.87
2023-03-04T19:20:50.362Z,7.85
2023-03-04T19:23:17.117Z,7.90
2023-03-04T19:25:44.252Z,7.90
2023-03-04T19:28:11.677Z,7.88
2023-03-04T19:30:39.928Z,7.86
2023-03-04T19:33:06.947Z,7.88
2023-03-04T19:35:33.907Z,7.88
2023-03-04T19:38:01.159Z,7.82
2023-03-04T19:40:28.311Z,7.84
2023-03-04T19:42:56.786Z,7.77
2023-03-04T19:45:23.558Z,7.79
2023-03-04T19:47:50.013Z,7.73
2023-03-04T19:50:17.180Z,7.70
2023-03-04T19:52:43.710Z,7.69
2023-03-04T19:55:12.851Z,7.67
2023-03-04T19:57:41.759Z,7.66
2023-03-04T20:00:12.793Z,7.64
2023-03-04T20:02:39.972Z,7.66
2023-03-04T20:05:07.107Z,7.65
2023-03-04T20:07:33.613Z,7.63
2023-03-04T20:10:00.140Z,7.63
2023-03-04T20:12:26.894Z,7.63
2023-03-04T20:14:53.440Z,7.57
2023-03-04T20:17:19.990Z,7.62
2023-03-04T20:19:47.480Z,7.59
2023-03-04T20:22:13.969Z,7.53
2023-03-04T20:24:40.527Z,7.54
2023-03-04T20:27:07.053Z,7.52
2023-03-04T20:29:33.502Z,7.52
2023-03-04T20:32:01.298Z,7.51
2023-03-04T20:34:27.778Z,7.49
2023-03-04T20:36:54.224Z,7.49
2023-03-04T20:39:29.757Z,7.47
2023-03-04T20:41:58.217Z,7.47
2023-03-04T20:44:24.850Z,7.45
2023-03-04T20:46:52.527Z,7.42
2023-03-04T20:49:24.044Z,7.38
2023-03-04T20:51:56.005Z,7.39
2023-03-04T20:54:22.573Z,7.36
2023-03-04T20:56:49.610Z,7.34
2023-03-04T20:59:16.761Z,7.36
2023-03-04T21:01:45.062Z,7.35
2023-03-04T21:04:11.826Z,7.36
2023-03-04T21:06:39.518Z,7.35
2023-03-04T21:09:09.310Z,7.36
2023-03-04T21:11:40.374Z,7.30
2023-03-04T21:14:16.327Z,7.29
2023-03-04T21:16:43.100Z,7.28
2023-03-04T21:19:15.692Z,7.28
2023-03-04T21:21:42.133Z,7.31
2023-03-04T21:24:13.105Z,7.26
2023-03-04T21:26:39.800Z,7.26
2023-03-04T21:29:06.289Z,7.18
2023-03-04T21:31:37.214Z,7.18
2023-03-04T21:34:03.688Z,7.16
2023-03-04T21:36:30.190Z,7.17
2023-03-04T21:38:56.697Z,7.16
2023-03-04T21:41:24.570Z,7.14
2023-03-04T21:43:51.971Z,7.09
2023-03-04T21:46:19.149Z,7.07
2023-03-04T21:48:47.700Z,7.06
2023-03-04T21:51:16.268Z,7.12
2023-03-04T21:53:43.453Z,7.10
2023-03-04T21:56:12.080Z,7.02
2023-03-04T21:58:42.327Z,7.09
2023-03-04T22:01:10.872Z,7.08
2023-03-04T22:03:37.470Z,7.09
2023-03-04T22:06:09.273Z,7.11
2023-03-04T22:08:36.370Z,7.08
2023-03-04T22:11:07.930Z,7.04
2023-03-04T22:13:34.629Z,7.02
2023-03-04T22:16:01.684Z,6.87
2023-03-04T22:18:28.241Z,6.88
2023-03-04T22:21:03.285Z,6.84
2023-03-04T22:23:30.150Z,6.89
2023-03-04T22:25:59.284Z,6.88
2023-03-04T22:28:28.319Z,6.82
2023-03-04T22:30:56.052Z,6.86
2023-03-04T22:33:23.712Z,6.83
2023-03-04T22:35:51.317Z,6.81
2023-03-04T22:38:18.648Z,6.78
2023-03-04T22:40:45.155Z,6.76
2023-03-04T22:43:11.645Z,6.73
2023-03-04T22:45:38.210Z,6.76
2023-03-04T22:48:05.022Z,6.76
2023-03-04T22:50:31.482Z,6.76
2023-03-04T22:52:58.202Z,6.73
2023-03-04T22:55:24.692Z,6.66
2023-03-04T22:57:51.169Z,6.67
2023-03-04T23:00:20.662Z,6.67
2023-03-04T23:02:47.449Z,6.61
2023-03-04T23:05:14.648Z,6.56
2023-03-04T23:07:41.950Z,6.55
2023-03-04T23:10:13.337Z,6.55
2023-03-04T23:12:40.670Z,6.56
2023-03-04T23:15:08.202Z,6.58
2023-03-04T23:17:34.878Z,6.57
2023-03-04T23:20:01.403Z,6.58
2023-03-04T23:22:27.953Z,6.58
2023-03-04T23:24:54.446Z,6.55
2023-03-04T23:27:20.910Z,6.52
2023-03-04T23:29:47.424Z,6.42
2023-03-04T23:32:13.965Z,6.46
2023-03-04T23:34:40.560Z,6.48
2023-03-04T23:37:07.090Z,6.50
2023-03-04T23:39:33.583Z,6.49
2023-03-04T23:42:00.076Z,6.53
2023-03-04T23:44:26.695Z,6.55
2023-03-04T23:46:53.717Z,6.53
2023-03-04T23:49:20.172Z,6.49
2023-03-04T23:51:46.771Z,6.48
2023-03-04T23:54:13.794Z,6.40
2023-03-04T23:56:40.407Z,6.38
2023-03-04T23:59:07.921Z,6.36
